createdAt,value
2023-03-26T00:02:15.396Z,98692.53
2023-03-26T00:04:46.093Z,98685.88
2023-03-26T00:07:16.027Z,98689.91
2023-03-26T00:09:44.865Z,98687.63
2023-03-26T00:12:13.582Z,98678.86
2023-03-26T00:14:44.842Z,98673.08
2023-03-26T00:17:13.423Z,98672.24
2023-03-26T00:19:43.752Z,98673.86
2023-03-26T00:22:13.709Z,98671.58
2023-03-26T00:24:44.474Z,98672.37
2023-03-26T00:27:14.237Z,98669.33
2023-03-26T00:29:43.719Z,98667.08
2023-03-26T00:32:12.761Z,98666.50
2023-03-26T00:34:45.294Z,98670.86
2023-03-26T00:37:15.924Z,98661.51
2023-03-26T00:39:47.921Z,98667.04
2023-03-26T00:42:16.840Z,98665.96
2023-03-26T00:44:45.808Z,98662.97
2023-03-26T00:47:16.606Z,98666.84
2023-03-26T00:49:46.529Z,98666.84
2023-03-26T00:52:20.013Z,98671.49
2023-03-26T00:54:51.819Z,98666.25
2023-03-26T00:57:32.998Z,98673.94
2023-03-26T00:59:52.628Z,98669.53
2023-03-26T01:02:21.888Z,98670.91
2023-03-26T01:04:57.891Z,98677.77
2023-03-26T01:07:28.258Z,98675.36
2023-03-26T01:09:59.100Z,98667.47
2023-03-26T01:12:32.114Z,98671.12
2023-03-26T01:15:01.471Z,98671.41
2023-03-26T01:17:33.996Z,98672.24
2023-03-26T01:20:23.798Z,98673.66
2023-03-26T01:22:57.818Z,98669.55
2023-03-26T01:25:27.492Z,98664.06
2023-03-26T01:27:56.364Z,98664.59
2023-03-26T01:30:44.815Z,98666.80
2023-03-26T01:33:36.051Z,98663.02
2023-03-26T01:36:25.590Z,98663.59
2023-03-26T01:39:20.335Z,98660.64
2023-03-26T01:41:58.886Z,98658.73
2023-03-26T01:44:42.620Z,98665.34
2023-03-26T01:47:11.145Z,98667.75
2023-03-26T01:49:40.552Z,98666.34
2023-03-26T01:52:16.449Z,98663.59
2023-03-26T01:54:46.583Z,98663.34
2023-03-26T01:57:29.917Z,98662.27
2023-03-26T02:00:30.361Z,98660.55
2023-03-26T02:03:35.004Z,98664.55
2023-03-26T02:06:34.058Z,98663.31
2023-03-26T02:09:08.397Z,98662.97
2023-03-26T02:11:37.261Z,98669.45
2023-03-26T02:14:08.148Z,98675.67
2023-03-26T02:16:37.088Z,98680.27
2023-03-26T02:19:09.618Z,98674.11
2023-03-26T02:21:38.505Z,98695.70
2023-03-26T02:24:09.144Z,98699.13
2023-03-26T02:26:39.663Z,98702.26
2023-03-26T02:29:10.560Z,98709.20
2023-03-26T02:31:40.537Z,98716.97
2023-03-26T02:34:10.584Z,98727.79
2023-03-26T02:36:41.856Z,98730.66
2023-03-26T02:39:11.052Z,98733.48
2023-03-26T02:41:41.460Z,98725.09
2023-03-26T02:44:12.226Z,98731.70
2023-03-26T02:46:42.686Z,98735.94
2023-03-26T02:49:14.894Z,98748.73
2023-03-26T02:51:44.382Z,98759.34
2023-03-26T02:54:24.303Z,98752.97
2023-03-26T02:56:58.101Z,98752.55
2023-03-26T02:59:45.898Z,98761.77
2023-03-26T03:02:33.305Z,98763.58
2023-03-26T03:05:05.561Z,98772.73
2023-03-26T03:07:37.836Z,98777.02
2023-03-26T03:10:09.792Z,98771.24
2023-03-26T03:12:55.977Z,98785.10
2023-03-26T03:15:27.158Z,98798.33
2023-03-26T03:17:58.309Z,98802.13
2023-03-26T03:20:30.290Z,98808.97
2023-03-26T03:23:01.190Z,98812.24
2023-03-26T03:25:32.502Z,98814.91
2023-03-26T03:28:04.468Z,98824.79
2023-03-26T03:30:33.548Z,98821.69
2023-03-26T03:33:08.178Z,98827.09
2023-03-26T03:35:39.923Z,98837.97
2023-03-26T03:38:11.362Z,98838.91
2023-03-26T03:40:42.738Z,98852.20
2023-03-26T03:43:12.996Z,98863.91
2023-03-26T03:45:43.588Z,98864.84
2023-03-26T03:48:17.560Z,98864.53
2023-03-26T03:50:47.412Z,98868.88
2023-03-26T03:53:18.308Z,98870.47
2023-03-26T03:55:53.694Z,98862.27
2023-03-26T03:58:28.122Z,98868.34
2023-03-26T04:01:00.665Z,98880.65
2023-03-26T04:03:48.084Z,98881.64
2023-03-26T04:06:21.433Z,98879.67
2023-03-26T04:08:52.713Z,98887.80
2023-03-26T04:11:22.256Z,98879.37
2023-03-26T04:14:09.993Z,98885.30
2023-03-26T04:16:43.368Z,98884.05
2023-03-26T04:19:14.045Z,98888.99
2023-03-26T04:21:43.041Z,98894.45
2023-03-26T04:24:12.386Z,98904.03
2023-03-26T04:26:47.966Z,98898.27
2023-03-26T04:29:20.422Z,98904.56
2023-03-26T04:31:51.805Z,98909.50
2023-03-26T04:34:23.971Z,98916.34
2023-03-26T04:36:55.189Z,98915.80
2023-03-26T04:39:29.526Z,98920.90
2023-03-26T04:42:11.004Z,98923.63
2023-03-26T04:44:49.102Z,98927.28
2023-03-26T04:47:19.683Z,98919.08
2023-03-26T04:49:48.925Z,98928.34
2023-03-26T04:52:18.846Z,98941.26
2023-03-26T04:55:09.980Z,98934.19
2023-03-26T04:57:41.748Z,98934.53
2023-03-26T05:00:19.663Z,98932.70
2023-03-26T05:02:54.105Z,98931.34
2023-03-26T05:05:23.596Z,98917.73
2023-03-26T05:07:52.646Z,98925.71
2023-03-26T05:10:21.937Z,98933.99
2023-03-26T05:13:02.148Z,98947.97
2023-03-26T05:15:37.162Z,98942.80
2023-03-26T05:18:24.393Z,98945.00
2023-03-26T05:20:57.145Z,98957.09
2023-03-26T05:23:27.837Z,98954.35
2023-03-26T05:25:59.186Z,98962.56
2023-03-26T05:28:28.078Z,98959.90
2023-03-26T05:31:03.271Z,98966.51
2023-03-26T05:33:35.041Z,98967.72
2023-03-26T05:36:15.105Z,98961.48
2023-03-26T05:38:48.784Z,98968.94
2023-03-26T05:41:22.500Z,98972.73
2023-03-26T05:43:52.893Z,98977.61
2023-03-26T05:46:23.499Z,98987.25
2023-03-26T05:48:53.979Z,98988.39
2023-03-26T05:51:24.353Z,98984.14
2023-03-26T05:53:56.511Z,98978.96
2023-03-26T05:56:37.477Z,98975.77
2023-03-26T05:59:25.499Z,98979.80
2023-03-26T06:02:13.701Z,98982.00
2023-03-26T06:04:59.052Z,98990.14
2023-03-26T06:07:33.079Z,98991.88
2023-03-26T06:10:04.386Z,98990.06
2023-03-26T06:12:33.667Z,98986.25
2023-03-26T06:15:04.296Z,98988.69
2023-03-26T06:17:39.182Z,98987.63
2023-03-26T06:20:16.464Z,98994.16
2023-03-26T06:22:46.794Z,98988.08
2023-03-26T06:25:20.763Z,98983.38
2023-03-26T06:27:57.265Z,98990.22
2023-03-26T06:30:46.467Z,98986.41
2023-03-26T06:33:21.130Z,98986.48
2023-03-26T06:35:53.582Z,98985.80
2023-03-26T06:38:23.609Z,98983.47
2023-03-26T06:40:52.764Z,98982.02
2023-03-26T06:43:27.781Z,98977.28
2023-03-26T06:46:15.263Z,98979.33
2023-03-26T06:49:03.378Z,98978.44
2023-03-26T06:51:41.193Z,98973.94
2023-03-26T06:54:11.570Z,98981.45
2023-03-26T06:56:46.534Z,98976.88
2023-03-26T06:59:25.056Z,98978.69
2023-03-26T07:01:58.694Z,98977.75
2023-03-26T07:04:35.940Z,98983.44
2023-03-26T07:07:24.711Z,98974.28
2023-03-26T07:10:11.560Z,98974.77
2023-03-26T07:12:58.901Z,98973.59
2023-03-26T07:15:36.997Z,98974.95
2023-03-26T07:18:14.665Z,98973.77
2023-03-26T07:20:46.145Z,98976.70
2023-03-26T07:23:18.133Z,98977.73
2023-03-26T07:25:51.757Z,98979.28
2023-03-26T07:29:04.436Z,98983.27
2023-03-26T07:32:17.272Z,98977.19
2023-03-26T07:34:59.040Z,98976.77
2023-03-26T07:37:47.524Z,98985.66
2023-03-26T07:40:45.212Z,98990.22
2023-03-26T07:43:33.870Z,98998.36
2023-03-26T07:46:14.307Z,99010.52
2023-03-26T07:48:47.890Z,99005.73
2023-03-26T07:51:35.396Z,99005.55
2023-03-26T07:54:18.991Z,99003.34
2023-03-26T07:57:16.231Z,99007.78
2023-03-26T08:00:32.528Z,99011.11
2023-03-26T08:03:21.576Z,99012.05
2023-03-26T08:06:36.155Z,99019.94
2023-03-26T08:09:31.776Z,99027.34
2023-03-26T08:12:33.661Z,99023.81
2023-03-26T08:15:26.067Z,99020.23
2023-03-26T08:18:07.617Z,99029.03
2023-03-26T08:20:53.563Z,99025.61
2023-03-26T08:23:30.516Z,99026.48
2023-03-26T08:26:18.189Z,99020.26
2023-03-26T08:29:21.164Z,99015.23
2023-03-26T08:31:50.711Z,99016.38
2023-03-26T08:34:19.451Z,99012.40
2023-03-26T08:36:48.364Z,99006.52
2023-03-26T08:39:18.017Z,99003.23
2023-03-26T08:42:10.872Z,99001.55
2023-03-26T08:44:57.503Z,99002.33
2023-03-26T08:47:46.961Z,98998.08
2023-03-26T08:50:26.680Z,98999.27
2023-03-26T08:53:22.260Z,98997.63
2023-03-26T08:56:48.613Z,99000.89
2023-03-26T08:59:40.531Z,98998.88
2023-03-26T09:02:37.335Z,99002.36
2023-03-26T09:05:33.584Z,99004.19
2023-03-26T09:08:30.817Z,99004.94
2023-03-26T09:11:37.350Z,99004.14
2023-03-26T09:14:42.841Z,99007.31
2023-03-26T09:17:50.341Z,99009.78
2023-03-26T09:20:52.933Z,99013.83
2023-03-26T09:24:14.309Z,99013.18
2023-03-26T09:27:06.294Z,99009.80
2023-03-26T09:30:03.815Z,99005.64
2023-03-26T09:33:03.080Z,99005.89
2023-03-26T09:35:55.158Z,99005.05
2023-03-26T09:38:56.148Z,99009.26
2023-03-26T09:41:53.387Z,99000.58
2023-03-26T09:44:49.077Z,98999.93
2023-03-26T09:47:31.766Z,98999.72
2023-03-26T09:50:50.407Z,98997.84
2023-03-26T09:54:06.538Z,98993.16
2023-03-26T09:56:58.244Z,98997.00
2023-03-26T09:59:41.337Z,99010.14
2023-03-26T10:02:46.254Z,99006.05
2023-03-26T10:05:31.716Z,98991.50
2023-03-26T10:08:33.240Z,99005.69
2023-03-26T10:11:33.254Z,98997.52
2023-03-26T10:14:43.665Z,98991.47
2023-03-26T10:17:38.944Z,98995.01
2023-03-26T10:20:35.084Z,98995.01
2023-03-26T10:23:25.662Z,98996.67
2023-03-26T10:26:24.247Z,99007.20
2023-03-26T10:29:05.447Z,99001.17
2023-03-26T10:32:18.808Z,99006.38
2023-03-26T10:35:39.774Z,99010.37
2023-03-26T10:38:57.076Z,99003.75
2023-03-26T10:41:39.245Z,99008.13
2023-03-26T10:44:44.596Z,99012.24
2023-03-26T10:47:41.930Z,99013.08
2023-03-26T10:50:23.007Z,99012.30
2023-03-26T10:53:16.057Z,99008.17
2023-03-26T10:55:46.574Z,99014.45
2023-03-26T10:58:25.331Z,99011.75
2023-03-26T11:01:13.593Z,99014.62
2023-03-26T11:03:55.716Z,99017.96
2023-03-26T11:06:32.860Z,99005.88
2023-03-26T11:09:24.166Z,99008.67
2023-03-26T11:12:28.566Z,99010.72
2023-03-26T11:15:31.007Z,99001.09
2023-03-26T11:18:05.306Z,98995.55
2023-03-26T11:21:19.316Z,98993.76
2023-03-26T11:23:35.509Z,98999.64
2023-03-26T11:26:30.073Z,98994.97
2023-03-26T11:29:32.248Z,98987.26
2023-03-26T11:32:24.657Z,98988.68
2023-03-26T11:35:40.939Z,98988.68
2023-03-26T11:37:54.683Z,98995.34
2023-03-26T11:40:28.128Z,98986.09
2023-03-26T11:43:02.447Z,98982.26
2023-03-26T11:45:36.389Z,98975.05
2023-03-26T11:48:44.380Z,98978.01
2023-03-26T11:51:35.937Z,98986.22
2023-03-26T11:54:09.566Z,98984.02
2023-03-26T11:57:05.387Z,98973.84
2023-03-26T11:59:56.690Z,98970.55
2023-03-26T12:02:31.666Z,98965.63
2023-03-26T12:05:14.402Z,98967.67
2023-03-26T12:08:00.894Z,98963.87
2023-03-26T12:10:39.061Z,98969.20
2023-03-26T12:13:37.603Z,98960.19
2023-03-26T12:16:15.673Z,98961.86
2023-03-26T12:18:47.828Z,98958.64
2023-03-26T12:21:19.305Z,98954.66
2023-03-26T12:24:04.884Z,98951.69
2023-03-26T12:26:48.698Z,98949.30
2023-03-26T12:29:18.624Z,98954.91
2023-03-26T12:31:58.078Z,98947.05
2023-03-26T12:34:34.814Z,98955.95
2023-03-26T12:37:05.678Z,98955.44
2023-03-26T12:40:09.045Z,98951.88
2023-03-26T12:44:47.168Z,98948.84
2023-03-26T12:45:02.655Z,98951.02
2023-03-26T12:47:59.790Z,98953.86
2023-03-26T12:50:05.058Z,98955.64
2023-03-26T12:53:16.060Z,98946.91
2023-03-26T12:56:03.572Z,98948.94
2023-03-26T12:59:03.848Z,98946.58
2023-03-26T13:01:57.874Z,98946.12
2023-03-26T13:05:06.558Z,98942.71
2023-03-26T13:08:17.267Z,98943.59
2023-03-26T13:11:09.465Z,98947.17
2023-03-26T13:14:02.093Z,98945.05
2023-03-26T13:17:02.077Z,98942.98
2023-03-26T13:19:46.137Z,98940.97
2023-03-26T13:22:35.783Z,98936.16
2023-03-26T13:25:25.268Z,98935.14
2023-03-26T13:28:11.758Z,98935.03
2023-03-26T13:30:58.242Z,98929.53
2023-03-26T13:33:42.680Z,98930.47
2023-03-26T13:36:37.398Z,98927.50
2023-03-26T13:39:14.296Z,98922.34
2023-03-26T13:42:20.013Z,98919.41
2023-03-26T13:45:33.083Z,98927.98
2023-03-26T13:48:02.430Z,98923.34
2023-03-26T13:50:38.674Z,98933.63
2023-03-26T13:53:21.373Z,98932.41
2023-03-26T13:55:58.200Z,98915.91
2023-03-26T13:58:47.313Z,98920.05
2023-03-26T14:01:38.452Z,98920.11
2023-03-26T14:04:30.867Z,98930.06
2023-03-26T14:07:21.960Z,98926.19
2023-03-26T14:10:07.079Z,98925.87
2023-03-26T14:13:03.415Z,98917.27
2023-03-26T14:15:47.734Z,98921.08
2023-03-26T14:18:37.575Z,98925.98
2023-03-26T14:21:59.617Z,98924.02
2023-03-26T14:24:54.687Z,98923.92
2023-03-26T14:28:02.103Z,98921.69
2023-03-26T14:31:03.033Z,98931.28
2023-03-26T14:33:49.391Z,98928.72
2023-03-26T14:36:48.139Z,98933.87
2023-03-26T14:39:59.228Z,98938.33
2023-03-26T14:42:39.518Z,98941.15
2023-03-26T14:45:41.252Z,98933.83
2023-03-26T14:48:38.466Z,98943.63
2023-03-26T14:51:41.609Z,98945.02
2023-03-26T14:54:18.209Z,98946.72
2023-03-26T14:57:08.208Z,98942.69
2023-03-26T15:00:04.556Z,98940.05
2023-03-26T15:03:08.983Z,98938.55
2023-03-26T15:06:06.556Z,98931.34
2023-03-26T15:09:15.846Z,98930.50
2023-03-26T15:12:13.700Z,98930.50
2023-03-26T15:15:20.720Z,98923.92
2023-03-26T15:17:58.302Z,98931.92
2023-03-26T15:21:16.798Z,98936.05
2023-03-26T15:24:08.867Z,98930.59
2023-03-26T15:27:03.370Z,98934.47
2023-03-26T15:30:14.043Z,98932.84
2023-03-26T15:33:18.381Z,98931.80
2023-03-26T15:36:30.161Z,98932.84
2023-03-26T15:40:00.022Z,98927.55
2023-03-26T15:42:49.331Z,98926.67
2023-03-26T15:46:15.762Z,98928.05
2023-03-26T15:49:17.062Z,98930.36
2023-03-26T15:52:15.582Z,98938.77
2023-03-26T15:55:20.414Z,98940.53
2023-03-26T15:58:17.006Z,98939.84
2023-03-26T16:01:19.871Z,98944.16
2023-03-26T16:04:14.342Z,98951.69
2023-03-26T16:06:51.422Z,98951.53
2023-03-26T16:09:57.720Z,98951.73
2023-03-26T16:12:31.265Z,98963.20
2023-03-26T16:15:21.891Z,98962.84
2023-03-26T16:18:15.581Z,98959.21
2023-03-26T16:20:54.827Z,98971.46
2023-03-26T16:23:47.331Z,98976.06
2023-03-26T16:26:15.099Z,98973.27
2023-03-26T16:29:03.158Z,98980.07
2023-03-26T16:31:39.457Z,98980.26
2023-03-26T16:34:13.013Z,98981.28
2023-03-26T16:36:45.692Z,98983.97
2023-03-26T16:39:39.941Z,98983.91
2023-03-26T16:42:23.221Z,98991.55
2023-03-26T16:45:21.850Z,99003.01
2023-03-26T16:48:12.529Z,98998.80
2023-03-26T16:51:06.637Z,99004.47
2023-03-26T16:53:52.469Z,99005.55
2023-03-26T16:56:41.048Z,99008.49
2023-03-26T16:59:17.888Z,99008.73
2023-03-26T17:04:24.737Z,99020.01
2023-03-26T17:07:18.956Z,99029.72
2023-03-26T17:10:35.695Z,99032.81
2023-03-26T17:13:24.986Z,99031.32
2023-03-26T17:16:30.057Z,99033.23
2023-03-26T17:19:20.747Z,99031.86
2023-03-26T17:22:03.632Z,99026.01
2023-03-26T17:24:53.634Z,99022.97
2023-03-26T17:27:39.398Z,99025.41
2023-03-26T17:30:54.927Z,99018.19
2023-03-26T17:33:34.761Z,99028.02
2023-03-26T17:36:17.682Z,99023.91
2023-03-26T17:38:52.111Z,99028.02
2023-03-26T17:41:56.432Z,99027.42
2023-03-26T17:44:36.045Z,99028.73
2023-03-26T17:47:07.071Z,99027.53
2023-03-26T17:49:37.417Z,99027.70
2023-03-26T17:52:21.207Z,99029.31
2023-03-26T17:54:52.868Z,99033.89
2023-03-26T17:57:43.574Z,99030.02
2023-03-26T18:00:23.583Z,99034.69
2023-03-26T18:03:14.315Z,99045.05
2023-03-26T18:05:43.057Z,99052.59
2023-03-26T18:08:36.844Z,99048.97
2023-03-26T18:11:23.384Z,99054.17
2023-03-26T18:14:24.869Z,99051.75
2023-03-26T18:16:56.605Z,99056.55
2023-03-26T18:19:26.355Z,99053.36
2023-03-26T18:22:01.953Z,99062.16
2023-03-26T18:24:38.825Z,99051.36
2023-03-26T18:27:15.495Z,99051.73
2023-03-26T18:30:02.132Z,99052.93
2023-03-26T18:32:33.507Z,99051.03
2023-03-26T18:35:16.791Z,99048.82
2023-03-26T18:37:45.791Z,99050.80
2023-03-26T18:40:23.134Z,99052.77
2023-03-26T18:42:55.494Z,99052.62
2023-03-26T18:45:37.404Z,99060.67
2023-03-26T18:48:21.706Z,99061.44
2023-03-26T18:51:05.066Z,99063.64
2023-03-26T18:53:40.371Z,99066.38
2023-03-26T18:56:22.141Z,99059.39
2023-03-26T18:58:52.272Z,99060.14
2023-03-26T19:01:25.780Z,99054.59
2023-03-26T19:03:53.616Z,99053.45
2023-03-26T19:06:23.336Z,99057.56
2023-03-26T19:08:55.053Z,99055.89
2023-03-26T19:11:25.892Z,99060.52
2023-03-26T19:14:19.024Z,99062.65
2023-03-26T19:16:59.675Z,99063.10
2023-03-26T19:19:38.101Z,99061.88
2023-03-26T19:22:07.226Z,99062.56
2023-03-26T19:24:36.017Z,99062.17
2023-03-26T19:27:05.562Z,99057.54
2023-03-26T19:29:35.900Z,99059.22
2023-03-26T19:32:20.834Z,99057.84
2023-03-26T19:34:50.457Z,99055.11
2023-03-26T19:37:32.210Z,99056.17
2023-03-26T19:40:06.909Z,99052.52
2023-03-26T19:42:43.141Z,99055.29
2023-03-26T19:45:12.404Z,99054.74
2023-03-26T19:47:52.272Z,99057.31
2023-03-26T19:50:26.941Z,99053.36
2023-03-26T19:53:33.279Z,99050.77
2023-03-26T19:56:15.785Z,99046.80
2023-03-26T19:58:44.466Z,99043.68
2023-03-26T20:01:20.808Z,99050.20
2023-03-26T20:03:58.697Z,99051.94
2023-03-26T20:06:42.383Z,99054.36
2023-03-26T20:09:02.151Z,99049.12
2023-03-26T20:11:38.452Z,99050.94
2023-03-26T20:14:14.807Z,99047.89
2023-03-26T20:16:45.626Z,99050.01
2023-03-26T20:19:15.496Z,99048.25
2023-03-26T20:21:46.011Z,99042.92
2023-03-26T20:24:16.855Z,99044.20
2023-03-26T20:26:46.657Z,99037.91
2023-03-26T20:29:16.491Z,99048.53
2023-03-26T20:31:46.652Z,99049.89
2023-03-26T20:34:19.566Z,99047.77
2023-03-26T20:36:50.267Z,99051.79
2023-03-26T20:39:19.841Z,99052.62
2023-03-26T20:41:50.013Z,99056.20
2023-03-26T20:44:20.772Z,99048.44
2023-03-26T20:46:50.569Z,99045.93
2023-03-26T20:49:21.947Z,99050.97
2023-03-26T20:51:51.379Z,99046.78
2023-03-26T20:54:24.037Z,99050.57
2023-03-26T20:56:53.938Z,99051.85
2023-03-26T20:59:29.038Z,99055.64
2023-03-26T21:01:58.922Z,99053.35
2023-03-26T21:04:27.842Z,99058.41
2023-03-26T21:07:07.208Z,99056.13
2023-03-26T21:09:31.694Z,99052.25
2023-03-26T21:12:04.954Z,99048.37
2023-03-26T21:14:40.488Z,99052.16
2023-03-26T21:17:19.747Z,99053.84
2023-03-26T21:19:48.821Z,99052.69
2023-03-26T21:22:51.707Z,99059.42
2023-03-26T21:25:52.565Z,99064.27
2023-03-26T21:28:42.384Z,99061.67
2023-03-26T21:31:18.208Z,99067.05
2023-03-26T21:33:47.946Z,99063.16
2023-03-26T21:36:19.430Z,99062.55
2023-03-26T21:38:50.183Z,99062.23
2023-03-26T21:42:05.232Z,99061.18
2023-03-26T21:44:21.746Z,99069.69
2023-03-26T21:46:52.118Z,99065.19
2023-03-26T21:49:22.196Z,99062.98
2023-03-26T21:51:51.624Z,99055.84
2023-03-26T21:54:28.701Z,99065.41
2023-03-26T21:57:18.919Z,99064.48
2023-03-26T22:00:18.536Z,99052.94
2023-03-26T22:03:20.266Z,99050.11
2023-03-26T22:06:03.657Z,99055.79
2023-03-26T22:08:39.018Z,99055.17
2023-03-26T22:11:10.293Z,99054.34
2023-03-26T22:13:39.412Z,99057.59
2023-03-26T22:16:10.291Z,99056.23
2023-03-26T22:18:40.083Z,99056.01
2023-03-26T22:21:09.795Z,99052.13
2023-03-26T22:23:38.643Z,99045.75
2023-03-26T22:26:07.780Z,99049.66
2023-03-26T22:28:38.052Z,99057.00
2023-03-26T22:31:10.479Z,99050.61
2023-03-26T22:33:39.786Z,99055.14
2023-03-26T22:36:22.598Z,99053.99
2023-03-26T22:38:42.038Z,99052.28
2023-03-26T22:41:11.228Z,99052.50
2023-03-26T22:43:39.996Z,99045.06
2023-03-26T22:46:08.615Z,99045.58
2023-03-26T22:48:39.258Z,99048.53
2023-03-26T22:51:09.009Z,99049.27
2023-03-26T22:53:39.114Z,99045.92
2023-03-26T22:56:13.864Z,99047.19
2023-03-26T22:58:44.160Z,99046.27
2023-03-26T23:01:17.454Z,99047.22
2023-03-26T23:03:46.966Z,99038.20
2023-03-26T23:06:15.709Z,99041.14
2023-03-26T23:08:44.855Z,99045.23
2023-03-26T23:11:16.800Z,99036.73
2023-03-26T23:13:47.389Z,99040.20
2023-03-26T23:16:16.462Z,99035.92
2023-03-26T23:18:46.900Z,99034.36
2023-03-26T23:21:19.788Z,99026.70
2023-03-26T23:23:49.494Z,99027.77
2023-03-26T23:26:19.626Z,99025.56
2023-03-26T23:28:50.668Z,99031.23
2023-03-26T23:31:19.684Z,99026.52
2023-03-26T23:33:49.892Z,99035.22
2023-03-26T23:36:19.205Z,99031.97
2023-03-26T23:38:48.555Z,99030.60
2023-03-26T23:41:21.341Z,99029.86
2023-03-26T23:43:54.828Z,99030.82
2023-03-26T23:46:23.730Z,99032.30
2023-03-26T23:48:52.924Z,99030.63
2023-03-26T23:51:24.088Z,99038.28
2023-03-26T23:53:53.420Z,99034.09
2023-03-26T23:56:23.732Z,99031.79
2023-03-26T23:58:53.279Z,99033.55
